sensor_id;sensor_type;location;lat;lon;timestamp;P1;durP1;ratioP1;P2;durP2;ratioP2
14994;SDS011;7593;49.006;8.372;2022-07-10T00:01:02;3.60;;;3.30;;
14994;SDS011;7593;49.006;8.372;2022-07-10T00:03:29;3.85;;;3.30;;
14994;SDS011;7593;49.006;8.372;2022-07-10T00:05:56;4.07;;;3.72;;
14994;SDS011;7593;49.006;8.372;2022-07-10T00:08:23;4.03;;;3.72;;
14994;SDS011;7593;49.006;8.372;2022-07-10T00:10:50;4.53;;;3.47;;
14994;SDS011;7593;49.006;8.372;2022-07-10T00:13:18;4.63;;;3.53;;
14994;SDS011;7593;49.006;8.372;2022-07-10T00:15:45;4.05;;;3.63;;
14994;SDS011;7593;49.006;8.372;2022-07-10T00:18:12;4.85;;;3.80;;
14994;SDS011;7593;49.006;8.372;2022-07-10T00:20:38;3.97;;;3.60;;
14994;SDS011;7593;49.006;8.372;2022-07-10T00:23:05;4.72;;;3.92;;
14994;SDS011;7593;49.006;8.372;2022-07-10T00:25:32;4.32;;;3.92;;
14994;SDS011;7593;49.006;8.372;2022-07-10T00:28:01;4.60;;;4.20;;
14994;SDS011;7593;49.006;8.372;2022-07-10T00:30:30;4.72;;;4.30;;
14994;SDS011;7593;49.006;8.372;2022-07-10T00:32:57;4.20;;;3.80;;
14994;SDS011;7593;49.006;8.372;2022-07-10T00:35:24;6.57;;;3.90;;
14994;SDS011;7593;49.006;8.372;2022-07-10T00:37:51;4.72;;;4.30;;
14994;SDS011;7593;49.006;8.372;2022-07-10T00:40:18;4.78;;;4.38;;
14994;SDS011;7593;49.006;8.372;2022-07-10T00:42:45;5.10;;;4.53;;
14994;SDS011;7593;49.006;8.372;2022-07-10T00:45:12;7.55;;;3.95;;
14994;SDS011;7593;49.006;8.372;2022-07-10T00:47:40;4.40;;;4.00;;
14994;SDS011;7593;49.006;8.372;2022-07-10T00:50:07;5.50;;;4.00;;
14994;SDS011;7593;49.006;8.372;2022-07-10T00:52:35;5.70;;;4.05;;
14994;SDS011;7593;49.006;8.372;2022-07-10T00:55:04;4.25;;;3.85;;
14994;SDS011;7593;49.006;8.372;2022-07-10T00:57:31;4.50;;;3.70;;
14994;SDS011;7593;49.006;8.372;2022-07-10T00:59:59;4.68;;;3.85;;
14994;SDS011;7593;49.006;8.372;2022-07-10T01:02:26;5.90;;;4.43;;
14994;SDS011;7593;49.006;8.372;2022-07-10T01:04:54;3.65;;;3.35;;
14994;SDS011;7593;49.006;8.372;2022-07-10T01:07:23;6.30;;;3.50;;
14994;SDS011;7593;49.006;8.372;2022-07-10T01:09:52;3.72;;;2.90;;
14994;SDS011;7593;49.006;8.372;2022-07-10T01:12:19;5.95;;;3.10;;
14994;SDS011;7593;49.006;8.372;2022-07-10T01:14:47;4.53;;;2.97;;
14994;SDS011;7593;49.006;8.372;2022-07-10T01:17:14;4.72;;;3.45;;
14994;SDS011;7593;49.006;8.372;2022-07-10T01:19:41;4.32;;;3.22;;
14994;SDS011;7593;49.006;8.372;2022-07-10T01:22:09;5.65;;;3.00;;
14994;SDS011;7593;49.006;8.372;2022-07-10T01:24:36;6.82;;;3.05;;
14994;SDS011;7593;49.006;8.372;2022-07-10T01:27:03;4.70;;;2.70;;
14994;SDS011;7593;49.006;8.372;2022-07-10T01:29:31;4.30;;;2.80;;
14994;SDS011;7593;49.006;8.372;2022-07-10T01:31:58;3.13;;;2.50;;
14994;SDS011;7593;49.006;8.372;2022-07-10T01:34:26;4.93;;;2.90;;
14994;SDS011;7593;49.006;8.372;2022-07-10T01:36:53;4.13;;;2.58;;
14994;SDS011;7593;49.006;8.372;2022-07-10T01:39:22;2.88;;;2.55;;
14994;SDS011;7593;49.006;8.372;2022-07-10T01:41:49;2.88;;;2.50;;
14994;SDS011;7593;49.006;8.372;2022-07-10T01:44:15;4.05;;;2.78;;
14994;SDS011;7593;49.006;8.372;2022-07-10T01:46:43;4.53;;;2.63;;
14994;SDS011;7593;49.006;8.372;2022-07-10T01:49:10;5.72;;;2.45;;
14994;SDS011;7593;49.006;8.372;2022-07-10T01:51:37;3.33;;;2.55;;
14994;SDS011;7593;49.006;8.372;2022-07-10T01:54:04;3.65;;;2.70;;
14994;SDS011;7593;49.006;8.372;2022-07-10T01:56:32;4.78;;;2.40;;
14994;SDS011;7593;49.006;8.372;2022-07-10T01:59:00;3.22;;;2.20;;
14994;SDS011;7593;49.006;8.372;2022-07-10T02:01:28;2.88;;;2.20;;
14994;SDS011;7593;49.006;8.372;2022-07-10T02:03:55;2.88;;;2.50;;
14994;SDS011;7593;49.006;8.372;2022-07-10T02:06:39;3.03;;;2.25;;
14994;SDS011;7593;49.006;8.372;2022-07-10T02:09:06;5.13;;;2.50;;
14994;SDS011;7593;49.006;8.372;2022-07-10T02:11:34;6.05;;;2.83;;
14994;SDS011;7593;49.006;8.372;2022-07-10T02:14:01;4.10;;;2.63;;
14994;SDS011;7593;49.006;8.372;2022-07-10T02:16:28;4.28;;;2.38;;
14994;SDS011;7593;49.006;8.372;2022-07-10T02:18:54;5.13;;;2.13;;
14994;SDS011;7593;49.006;8.372;2022-07-10T02:21:21;3.35;;;2.08;;
14994;SDS011;7593;49.006;8.372;2022-07-10T02:23:48;3.10;;;2.42;;
14994;SDS011;7593;49.006;8.372;2022-07-10T02:26:15;4.82;;;2.30;;
14994;SDS011;7593;49.006;8.372;2022-07-10T02:28:43;3.75;;;2.03;;
14994;SDS011;7593;49.006;8.372;2022-07-10T02:31:10;2.97;;;2.13;;
14994;SDS011;7593;49.006;8.372;2022-07-10T02:33:37;4.38;;;2.30;;
14994;SDS011;7593;49.006;8.372;2022-07-10T02:36:04;3.50;;;2.20;;
14994;SDS011;7593;49.006;8.372;2022-07-10T02:38:34;5.25;;;2.40;;
14994;SDS011;7593;49.006;8.372;2022-07-10T02:41:00;4.68;;;2.38;;
14994;SDS011;7593;49.006;8.372;2022-07-10T02:43:27;6.07;;;2.25;;
14994;SDS011;7593;49.006;8.372;2022-07-10T02:45:56;3.75;;;2.25;;
14994;SDS011;7593;49.006;8.372;2022-07-10T02:48:23;4.15;;;2.38;;
14994;SDS011;7593;49.006;8.372;2022-07-10T02:50:51;3.25;;;2.40;;
14994;SDS011;7593;49.006;8.372;2022-07-10T02:53:17;5.03;;;2.20;;
14994;SDS011;7593;49.006;8.372;2022-07-10T02:55:44;4.45;;;2.00;;
14994;SDS011;7593;49.006;8.372;2022-07-10T02:58:11;4.35;;;2.00;;
14994;SDS011;7593;49.006;8.372;2022-07-10T03:00:40;4.00;;;2.40;;
14994;SDS011;7593;49.006;8.372;2022-07-10T03:03:08;6.15;;;2.05;;
14994;SDS011;7593;49.006;8.372;2022-07-10T03:05:35;4.70;;;2.20;;
14994;SDS011;7593;49.006;8.372;2022-07-10T03:08:02;4.15;;;2.35;;
14994;SDS011;7593;49.006;8.372;2022-07-10T03:10:30;2.22;;;2.00;;
14994;SDS011;7593;49.006;8.372;2022-07-10T03:12:56;4.25;;;1.92;;
14994;SDS011;7593;49.006;8.372;2022-07-10T03:15:23;3.17;;;2.08;;
14994;SDS011;7593;49.006;8.372;2022-07-10T03:17:50;4.13;;;2.30;;
14994;SDS011;7593;49.006;8.372;2022-07-10T03:20:18;2.60;;;1.80;;
14994;SDS011;7593;49.006;8.372;2022-07-10T03:22:45;5.57;;;2.20;;
14994;SDS011;7593;49.006;8.372;2022-07-10T03:25:12;3.35;;;2.10;;
14994;SDS011;7593;49.006;8.372;2022-07-10T03:27:39;2.95;;;2.00;;
14994;SDS011;7593;49.006;8.372;2022-07-10T03:30:09;4.32;;;2.20;;
14994;SDS011;7593;49.006;8.372;2022-07-10T03:32:36;7.82;;;2.05;;
14994;SDS011;7593;49.006;8.372;2022-07-10T03:35:03;7.53;;;2.20;;
14994;SDS011;7593;49.006;8.372;2022-07-10T03:37:32;2.75;;;1.75;;
14994;SDS011;7593;49.006;8.372;2022-07-10T03:39:59;6.10;;;2.45;;
14994;SDS011;7593;49.006;8.372;2022-07-10T03:42:26;5.45;;;2.03;;
14994;SDS011;7593;49.006;8.372;2022-07-10T03:44:53;5.05;;;1.90;;
14994;SDS011;7593;49.006;8.372;2022-07-10T03:47:20;6.57;;;2.03;;
14994;SDS011;7593;49.006;8.372;2022-07-10T03:49:47;3.45;;;2.13;;
14994;SDS011;7593;49.006;8.372;2022-07-10T03:52:14;5.32;;;2.10;;
14994;SDS011;7593;49.006;8.372;2022-07-10T03:54:43;4.28;;;2.08;;
14994;SDS011;7593;49.006;8.372;2022-07-10T03:57:10;5.05;;;2.25;;
14994;SDS011;7593;49.006;8.372;2022-07-10T03:59:54;5.43;;;2.40;;
14994;SDS011;7593;49.006;8.372;2022-07-10T04:02:20;5.00;;;2.20;;
14994;SDS011;7593;49.006;8.372;2022-07-10T04:04:48;4.57;;;2.33;;
14994;SDS011;7593;49.006;8.372;2022-07-10T04:07:15;7.60;;;2.05;;
14994;SDS011;7593;49.006;8.372;2022-07-10T04:09:43;7.97;;;2.38;;
14994;SDS011;7593;49.006;8.372;2022-07-10T04:12:10;5.13;;;1.90;;
14994;SDS011;7593;49.006;8.372;2022-07-10T04:14:37;3.95;;;1.83;;
14994;SDS011;7593;49.006;8.372;2022-07-10T04:17:04;4.30;;;1.70;;
14994;SDS011;7593;49.006;8.372;2022-07-10T04:19:31;2.85;;;1.77;;
14994;SDS011;7593;49.006;8.372;2022-07-10T04:21:57;3.95;;;1.98;;
14994;SDS011;7593;49.006;8.372;2022-07-10T04:24:24;5.32;;;2.10;;
14994;SDS011;7593;49.006;8.372;2022-07-10T04:26:52;5.72;;;2.33;;
14994;SDS011;7593;49.006;8.372;2022-07-10T04:29:19;4.95;;;1.98;;
14994;SDS011;7593;49.006;8.372;2022-07-10T04:31:48;3.70;;;1.90;;
14994;SDS011;7593;49.006;8.372;2022-07-10T04:34:15;4.35;;;2.30;;
14994;SDS011;7593;49.006;8.372;2022-07-10T04:36:43;5.88;;;2.17;;
14994;SDS011;7593;49.006;8.372;2022-07-10T04:39:10;8.85;;;2.13;;
14994;SDS011;7593;49.006;8.372;2022-07-10T04:41:37;2.97;;;2.00;;
14994;SDS011;7593;49.006;8.372;2022-07-10T04:44:05;6.72;;;1.88;;
14994;SDS011;7593;49.006;8.372;2022-07-10T04:46:32;3.33;;;1.90;;
14994;SDS011;7593;49.006;8.372;2022-07-10T04:49:08;6.03;;;1.85;;
14994;SDS011;7593;49.006;8.372;2022-07-10T04:51:35;2.72;;;1.65;;
14994;SDS011;7593;49.006;8.372;2022-07-10T04:54:02;5.07;;;2.00;;
14994;SDS011;7593;49.006;8.372;2022-07-10T04:56:28;4.47;;;2.00;;
14994;SDS011;7593;49.006;8.372;2022-07-10T04:58:55;4.05;;;1.98;;
14994;SDS011;7593;49.006;8.372;2022-07-10T05:01:23;5.15;;;1.85;;
14994;SDS011;7593;49.006;8.372;2022-07-10T05:03:50;5.18;;;2.13;;
14994;SDS011;7593;49.006;8.372;2022-07-10T05:06:17;4.18;;;2.25;;
14994;SDS011;7593;49.006;8.372;2022-07-10T05:08:44;4.82;;;2.00;;
14994;SDS011;7593;49.006;8.372;2022-07-10T05:11:11;3.72;;;2.13;;
14994;SDS011;7593;49.006;8.372;2022-07-10T05:13:38;3.60;;;2.00;;
14994;SDS011;7593;49.006;8.372;2022-07-10T05:16:05;5.30;;;2.25;;
14994;SDS011;7593;49.006;8.372;2022-07-10T05:18:34;5.38;;;2.22;;
14994;SDS011;7593;49.006;8.372;2022-07-10T05:21:01;2.90;;;1.60;;
14994;SDS011;7593;49.006;8.372;2022-07-10T05:23:28;7.72;;;2.00;;
14994;SDS011;7593;49.006;8.372;2022-07-10T05:25:55;4.85;;;1.88;;
14994;SDS011;7593;49.006;8.372;2022-07-10T05:28:21;4.53;;;1.90;;
14994;SDS011;7593;49.006;8.372;2022-07-10T05:30:48;5.93;;;2.25;;
14994;SDS011;7593;49.006;8.372;2022-07-10T05:33:15;4.80;;;2.00;;
14994;SDS011;7593;49.006;8.372;2022-07-10T05:35:44;6.22;;;2.00;;
14994;SDS011;7593;49.006;8.372;2022-07-10T05:38:11;5.95;;;2.35;;
14994;SDS011;7593;49.006;8.372;2022-07-10T05:40:38;5.50;;;1.98;;
14994;SDS011;7593;49.006;8.372;2022-07-10T05:43:04;4.65;;;2.17;;
14994;SDS011;7593;49.006;8.372;2022-07-10T05:45:32;6.88;;;2.08;;
14994;SDS011;7593;49.006;8.372;2022-07-10T05:47:59;7.05;;;1.80;;
14994;SDS011;7593;49.006;8.372;2022-07-10T05:50:26;4.18;;;1.73;;
14994;SDS011;7593;49.006;8.372;2022-07-10T05:52:54;3.08;;;1.60;;
14994;SDS011;7593;49.006;8.372;2022-07-10T05:55:21;5.05;;;2.08;;
14994;SDS011;7593;49.006;8.372;2022-07-10T05:57:48;3.53;;;1.80;;
14994;SDS011;7593;49.006;8.372;2022-07-10T06:00:16;3.35;;;1.70;;
14994;SDS011;7593;49.006;8.372;2022-07-10T06:02:43;4.90;;;2.30;;
14994;SDS011;7593;49.006;8.372;2022-07-10T06:05:10;4.97;;;2.08;;
14994;SDS011;7593;49.006;8.372;2022-07-10T06:07:36;5.03;;;2.00;;
14994;SDS011;7593;49.006;8.372;2022-07-10T06:10:05;3.50;;;2.00;;
14994;SDS011;7593;49.006;8.372;2022-07-10T06:12:33;4.07;;;1.80;;
14994;SDS011;7593;49.006;8.372;2022-07-10T06:14:59;4.57;;;2.00;;
14994;SDS011;7593;49.006;8.372;2022-07-10T06:17:26;9.07;;;2.35;;
14994;SDS011;7593;49.006;8.372;2022-07-10T06:19:53;5.75;;;1.85;;
14994;SDS011;7593;49.006;8.372;2022-07-10T06:22:20;4.85;;;1.75;;
14994;SDS011;7593;49.006;8.372;2022-07-10T06:24:57;4.32;;;1.80;;
14994;SDS011;7593;49.006;8.372;2022-07-10T06:27:25;6.03;;;1.95;;
14994;SDS011;7593;49.006;8.372;2022-07-10T06:29:52;5.18;;;1.88;;
14994;SDS011;7593;49.006;8.372;2022-07-10T06:32:19;4.38;;;2.00;;
14994;SDS011;7593;49.006;8.372;2022-07-10T06:34:47;4.38;;;2.00;;
14994;SDS011;7593;49.006;8.372;2022-07-10T06:37:13;3.88;;;2.03;;
14994;SDS011;7593;49.006;8.372;2022-07-10T06:39:40;4.97;;;2.03;;
14994;SDS011;7593;49.006;8.372;2022-07-10T06:42:08;4.22;;;1.98;;
14994;SDS011;7593;49.006;8.372;2022-07-10T06:44:36;3.38;;;1.70;;
14994;SDS011;7593;49.006;8.372;2022-07-10T06:47:03;6.25;;;1.85;;
14994;SDS011;7593;49.006;8.372;2022-07-10T06:49:50;4.25;;;2.00;;
14994;SDS011;7593;49.006;8.372;2022-07-10T06:52:19;3.58;;;1.70;;
14994;SDS011;7593;49.006;8.372;2022-07-10T06:54:46;5.47;;;1.80;;
14994;SDS011;7593;49.006;8.372;2022-07-10T06:57:13;5.10;;;2.10;;
14994;SDS011;7593;49.006;8.372;2022-07-10T06:59:44;4.53;;;1.90;;
14994;SDS011;7593;49.006;8.372;2022-07-10T07:02:11;5.15;;;2.10;;
14994;SDS011;7593;49.006;8.372;2022-07-10T07:04:38;3.28;;;1.90;;
14994;SDS011;7593;49.006;8.372;2022-07-10T07:07:05;5.18;;;1.90;;
14994;SDS011;7593;49.006;8.372;2022-07-10T07:09:32;3.08;;;1.50;;
14994;SDS011;7593;49.006;8.372;2022-07-10T07:12:02;7.20;;;2.10;;
14994;SDS011;7593;49.006;8.372;2022-07-10T07:14:30;3.75;;;1.80;;
14994;SDS011;7593;49.006;8.372;2022-07-10T07:16:59;6.47;;;2.15;;
14994;SDS011;7593;49.006;8.372;2022-07-10T07:19:30;2.88;;;1.95;;
14994;SDS011;7593;49.006;8.372;2022-07-10T07:22:17;3.42;;;1.83;;
14994;SDS011;7593;49.006;8.372;2022-07-10T07:25:03;5.45;;;2.20;;
14994;SDS011;7593;49.006;8.372;2022-07-10T07:27:33;4.65;;;1.90;;
14994;SDS011;7593;49.006;8.372;2022-07-10T07:30:08;3.25;;;1.58;;
14994;SDS011;7593;49.006;8.372;2022-07-10T07:32:38;4.70;;;2.10;;
14994;SDS011;7593;49.006;8.372;2022-07-10T07:35:05;4.68;;;1.63;;
14994;SDS011;7593;49.006;8.372;2022-07-10T07:37:37;3.78;;;1.75;;
14994;SDS011;7593;49.006;8.372;2022-07-10T07:40:05;3.78;;;1.75;;
14994;SDS011;7593;49.006;8.372;2022-07-10T07:42:33;3.63;;;1.67;;
14994;SDS011;7593;49.006;8.372;2022-07-10T07:45:01;4.20;;;1.90;;
14994;SDS011;7593;49.006;8.372;2022-07-10T07:47:29;5.75;;;1.95;;
14994;SDS011;7593;49.006;8.372;2022-07-10T07:50:00;2.55;;;1.67;;
14994;SDS011;7593;49.006;8.372;2022-07-10T07:52:29;3.38;;;1.63;;
14994;SDS011;7593;49.006;8.372;2022-07-10T07:54:56;2.90;;;1.50;;
14994;SDS011;7593;49.006;8.372;2022-07-10T07:57:23;2.53;;;1.35;;
14994;SDS011;7593;49.006;8.372;2022-07-10T07:59:52;4.40;;;1.35;;
14994;SDS011;7593;49.006;8.372;2022-07-10T08:02:21;3.45;;;1.48;;
14994;SDS011;7593;49.006;8.372;2022-07-10T08:04:48;2.35;;;1.50;;
14994;SDS011;7593;49.006;8.372;2022-07-10T08:07:17;2.63;;;1.50;;
14994;SDS011;7593;49.006;8.372;2022-07-10T08:09:49;3.63;;;1.40;;
14994;SDS011;7593;49.006;8.372;2022-07-10T08:12:16;4.53;;;1.50;;
14994;SDS011;7593;49.006;8.372;2022-07-10T08:14:43;5.55;;;1.55;;
14994;SDS011;7593;49.006;8.372;2022-07-10T08:17:10;4.25;;;1.60;;
14994;SDS011;7593;49.006;8.372;2022-07-10T08:19:37;2.70;;;1.50;;
14994;SDS011;7593;49.006;8.372;2022-07-10T08:22:04;5.50;;;1.70;;
14994;SDS011;7593;49.006;8.372;2022-07-10T08:24:34;5.10;;;1.83;;
14994;SDS011;7593;49.006;8.372;2022-07-10T08:27:01;3.90;;;1.67;;
14994;SDS011;7593;49.006;8.372;2022-07-10T08:29:28;3.88;;;1.40;;
14994;SDS011;7593;49.006;8.372;2022-07-10T08:31:55;5.20;;;1.50;;
14994;SDS011;7593;49.006;8.372;2022-07-10T08:34:21;3.90;;;1.60;;
14994;SDS011;7593;49.006;8.372;2022-07-10T08:36:48;4.63;;;1.60;;
14994;SDS011;7593;49.006;8.372;2022-07-10T08:39:15;5.63;;;1.58;;
14994;SDS011;7593;49.006;8.372;2022-07-10T08:41:47;2.75;;;1.30;;
14994;SDS011;7593;49.006;8.372;2022-07-10T08:44:15;3.42;;;1.60;;
14994;SDS011;7593;49.006;8.372;2022-07-10T08:46:42;5.53;;;1.52;;
14994;SDS011;7593;49.006;8.372;2022-07-10T08:49:10;2.60;;;1.40;;
14994;SDS011;7593;49.006;8.372;2022-07-10T08:51:40;3.35;;;1.35;;
14994;SDS011;7593;49.006;8.372;2022-07-10T08:54:09;4.53;;;1.70;;
14994;SDS011;7593;49.006;8.372;2022-07-10T08:56:39;3.38;;;1.27;;
14994;SDS011;7593;49.006;8.372;2022-07-10T08:59:08;3.00;;;1.38;;
14994;SDS011;7593;49.006;8.372;2022-07-10T09:01:35;7.03;;;1.70;;
14994;SDS011;7593;49.006;8.372;2022-07-10T09:04:02;3.00;;;1.38;;
14994;SDS011;7593;49.006;8.372;2022-07-10T09:06:30;3.78;;;1.17;;
14994;SDS011;7593;49.006;8.372;2022-07-10T09:09:06;5.15;;;1.35;;
14994;SDS011;7593;49.006;8.372;2022-07-10T09:11:35;1.73;;;1.02;;
14994;SDS011;7593;49.006;8.372;2022-07-10T09:14:04;2.58;;;1.10;;
14994;SDS011;7593;49.006;8.372;2022-07-10T09:16:35;3.92;;;1.45;;
14994;SDS011;7593;49.006;8.372;2022-07-10T09:19:15;3.78;;;1.23;;
14994;SDS011;7593;49.006;8.372;2022-07-10T09:21:44;3.42;;;1.33;;
14994;SDS011;7593;49.006;8.372;2022-07-10T09:24:12;3.83;;;1.35;;
14994;SDS011;7593;49.006;8.372;2022-07-10T09:26:39;3.33;;;1.17;;
14994;SDS011;7593;49.006;8.372;2022-07-10T09:29:07;3.38;;;1.25;;
14994;SDS011;7593;49.006;8.372;2022-07-10T09:31:50;3.90;;;1.33;;
14994;SDS011;7593;49.006;8.372;2022-07-10T09:34:36;3.85;;;1.20;;
14994;SDS011;7593;49.006;8.372;2022-07-10T09:39:53;1.63;;;0.93;;
14994;SDS011;7593;49.006;8.372;2022-07-10T09:42:28;2.85;;;1.05;;
14994;SDS011;7593;49.006;8.372;2022-07-10T09:45:12;2.33;;;1.15;;
14994;SDS011;7593;49.006;8.372;2022-07-10T09:47:43;1.98;;;1.10;;
14994;SDS011;7593;49.006;8.372;2022-07-10T09:50:19;2.08;;;1.00;;
14994;SDS011;7593;49.006;8.372;2022-07-10T09:52:49;1.70;;;0.90;;
14994;SDS011;7593;49.006;8.372;2022-07-10T09:55:17;1.13;;;0.75;;
14994;SDS011;7593;49.006;8.372;2022-07-10T09:57:51;2.20;;;0.90;;
14994;SDS011;7593;49.006;8.372;2022-07-10T10:00:23;1.15;;;0.70;;
14994;SDS011;7593;49.006;8.372;2022-07-10T10:02:56;2.47;;;1.10;;
14994;SDS011;7593;49.006;8.372;2022-07-10T10:05:35;2.75;;;1.40;;
14994;SDS011;7593;49.006;8.372;2022-07-10T10:08:10;2.03;;;0.93;;
14994;SDS011;7593;49.006;8.372;2022-07-10T10:10:43;1.52;;;0.85;;
14994;SDS011;7593;49.006;8.372;2022-07-10T10:13:12;3.25;;;1.00;;
14994;SDS011;7593;49.006;8.372;2022-07-10T10:15:43;1.45;;;0.70;;
14994;SDS011;7593;49.006;8.372;2022-07-10T10:18:14;2.42;;;1.00;;
14994;SDS011;7593;49.006;8.372;2022-07-10T10:20:45;2.55;;;0.90;;
14994;SDS011;7593;49.006;8.372;2022-07-10T10:23:12;2.38;;;1.20;;
14994;SDS011;7593;49.006;8.372;2022-07-10T10:25:40;1.77;;;0.90;;
14994;SDS011;7593;49.006;8.372;2022-07-10T10:28:11;2.60;;;0.90;;
14994;SDS011;7593;49.006;8.372;2022-07-10T10:30:40;1.60;;;0.88;;
14994;SDS011;7593;49.006;8.372;2022-07-10T10:36:12;3.35;;;1.13;;
14994;SDS011;7593;49.006;8.372;2022-07-10T10:39:01;2.03;;;1.00;;
14994;SDS011;7593;49.006;8.372;2022-07-10T10:41:36;2.05;;;0.95;;
14994;SDS011;7593;49.006;8.372;2022-07-10T10:44:20;1.60;;;0.82;;
14994;SDS011;7593;49.006;8.372;2022-07-10T10:46:58;2.35;;;0.85;;
14994;SDS011;7593;49.006;8.372;2022-07-10T10:52:19;2.58;;;1.13;;
14994;SDS011;7593;49.006;8.372;2022-07-10T10:55:07;2.45;;;0.93;;
14994;SDS011;7593;49.006;8.372;2022-07-10T10:57:37;3.45;;;1.10;;
14994;SDS011;7593;49.006;8.372;2022-07-10T11:03:14;2.38;;;1.02;;
14994;SDS011;7593;49.006;8.372;2022-07-10T11:05:44;3.20;;;1.10;;
14994;SDS011;7593;49.006;8.372;2022-07-10T11:08:12;2.70;;;0.93;;
14994;SDS011;7593;49.006;8.372;2022-07-10T11:10:40;2.10;;;1.00;;
14994;SDS011;7593;49.006;8.372;2022-07-10T11:13:09;2.15;;;1.10;;
14994;SDS011;7593;49.006;8.372;2022-07-10T11:15:38;4.15;;;0.90;;
14994;SDS011;7593;49.006;8.372;2022-07-10T11:18:07;3.63;;;1.08;;
14994;SDS011;7593;49.006;8.372;2022-07-10T11:20:35;2.83;;;0.90;;
14994;SDS011;7593;49.006;8.372;2022-07-10T11:23:16;2.03;;;1.05;;
14994;SDS011;7593;49.006;8.372;2022-07-10T11:25:59;1.90;;;0.90;;
14994;SDS011;7593;49.006;8.372;2022-07-10T11:28:38;1.90;;;0.73;;
14994;SDS011;7593;49.006;8.372;2022-07-10T11:31:11;2.15;;;1.10;;
14994;SDS011;7593;49.006;8.372;2022-07-10T11:33:39;3.05;;;0.80;;
14994;SDS011;7593;49.006;8.372;2022-07-10T11:36:12;2.63;;;0.90;;
14994;SDS011;7593;49.006;8.372;2022-07-10T11:38:41;2.20;;;1.00;;
14994;SDS011;7593;49.006;8.372;2022-07-10T11:41:12;3.00;;;1.20;;
14994;SDS011;7593;49.006;8.372;2022-07-10T11:43:46;4.53;;;1.35;;
14994;SDS011;7593;49.006;8.372;2022-07-10T11:46:18;3.22;;;0.80;;
14994;SDS011;7593;49.006;8.372;2022-07-10T11:48:47;3.58;;;1.00;;
14994;SDS011;7593;49.006;8.372;2022-07-10T11:51:16;2.63;;;1.02;;
14994;SDS011;7593;49.006;8.372;2022-07-10T11:53:59;2.92;;;0.90;;
14994;SDS011;7593;49.006;8.372;2022-07-10T11:56:30;2.00;;;0.90;;
14994;SDS011;7593;49.006;8.372;2022-07-10T11:58:59;4.63;;;1.10;;
14994;SDS011;7593;49.006;8.372;2022-07-10T12:01:28;3.13;;;0.88;;
14994;SDS011;7593;49.006;8.372;2022-07-10T12:03:58;4.15;;;1.17;;
14994;SDS011;7593;49.006;8.372;2022-07-10T12:06:27;3.45;;;1.10;;
14994;SDS011;7593;49.006;8.372;2022-07-10T12:08:55;2.47;;;1.10;;
14994;SDS011;7593;49.006;8.372;2022-07-10T12:11:23;4.53;;;1.10;;
14994;SDS011;7593;49.006;8.372;2022-07-10T12:13:51;3.03;;;1.00;;
14994;SDS011;7593;49.006;8.372;2022-07-10T12:16:19;3.83;;;1.23;;
14994;SDS011;7593;49.006;8.372;2022-07-10T12:18:47;4.57;;;1.13;;
14994;SDS011;7593;49.006;8.372;2022-07-10T12:21:17;2.80;;;1.15;;
14994;SDS011;7593;49.006;8.372;2022-07-10T12:23:45;2.38;;;1.00;;
14994;SDS011;7593;49.006;8.372;2022-07-10T12:26:15;3.40;;;1.08;;
14994;SDS011;7593;49.006;8.372;2022-07-10T12:28:51;5.28;;;1.00;;
14994;SDS011;7593;49.006;8.372;2022-07-10T12:31:22;1.88;;;0.93;;
14994;SDS011;7593;49.006;8.372;2022-07-10T12:33:52;2.08;;;0.80;;
14994;SDS011;7593;49.006;8.372;2022-07-10T12:36:22;2.25;;;1.20;;
14994;SDS011;7593;49.006;8.372;2022-07-10T12:38:56;2.58;;;0.98;;
14994;SDS011;7593;49.006;8.372;2022-07-10T12:41:24;2.05;;;1.10;;
14994;SDS011;7593;49.006;8.372;2022-07-10T12:43:55;3.10;;;1.10;;
14994;SDS011;7593;49.006;8.372;2022-07-10T12:46:23;2.15;;;1.08;;
14994;SDS011;7593;49.006;8.372;2022-07-10T12:49:03;2.55;;;1.05;;
14994;SDS011;7593;49.006;8.372;2022-07-10T12:51:33;2.17;;;1.02;;
14994;SDS011;7593;49.006;8.372;2022-07-10T12:54:08;4.57;;;1.27;;
14994;SDS011;7593;49.006;8.372;2022-07-10T12:56:35;2.28;;;1.05;;
14994;SDS011;7593;49.006;8.372;2022-07-10T12:59:12;5.75;;;1.77;;
14994;SDS011;7593;49.006;8.372;2022-07-10T13:01:40;3.08;;;1.10;;
14994;SDS011;7593;49.006;8.372;2022-07-10T13:04:08;2.10;;;0.98;;
14994;SDS011;7593;49.006;8.372;2022-07-10T13:06:38;2.92;;;1.20;;
14994;SDS011;7593;49.006;8.372;2022-07-10T13:09:18;2.42;;;1.10;;
14994;SDS011;7593;49.006;8.372;2022-07-10T13:11:46;2.80;;;1.17;;
14994;SDS011;7593;49.006;8.372;2022-07-10T13:14:15;3.13;;;1.10;;
14994;SDS011;7593;49.006;8.372;2022-07-10T13:16:42;3.88;;;1.15;;
14994;SDS011;7593;49.006;8.372;2022-07-10T13:19:09;3.03;;;1.30;;
14994;SDS011;7593;49.006;8.372;2022-07-10T13:21:36;3.28;;;0.90;;
14994;SDS011;7593;49.006;8.372;2022-07-10T13:24:04;4.28;;;0.93;;
14994;SDS011;7593;49.006;8.372;2022-07-10T13:26:31;3.00;;;1.05;;
14994;SDS011;7593;49.006;8.372;2022-07-10T13:28:59;3.25;;;1.13;;
14994;SDS011;7593;49.006;8.372;2022-07-10T13:31:27;4.65;;;1.33;;
14994;SDS011;7593;49.006;8.372;2022-07-10T13:33:54;3.42;;;1.05;;
14994;SDS011;7593;49.006;8.372;2022-07-10T13:36:22;3.47;;;1.30;;
14994;SDS011;7593;49.006;8.372;2022-07-10T13:38:49;6.63;;;1.10;;
14994;SDS011;7593;49.006;8.372;2022-07-10T13:41:17;3.08;;;1.20;;
14994;SDS011;7593;49.006;8.372;2022-07-10T13:43:44;3.92;;;1.23;;
14994;SDS011;7593;49.006;8.372;2022-07-10T13:46:12;2.63;;;0.98;;
14994;SDS011;7593;49.006;8.372;2022-07-10T13:48:40;4.32;;;1.15;;
14994;SDS011;7593;49.006;8.372;2022-07-10T13:51:07;2.67;;;1.08;;
14994;SDS011;7593;49.006;8.372;2022-07-10T13:53:34;4.25;;;1.10;;
14994;SDS011;7593;49.006;8.372;2022-07-10T13:56:01;1.42;;;0.70;;
14994;SDS011;7593;49.006;8.372;2022-07-10T13:58:31;3.53;;;1.50;;
14994;SDS011;7593;49.006;8.372;2022-07-10T14:01:01;3.90;;;1.10;;
14994;SDS011;7593;49.006;8.372;2022-07-10T14:03:29;2.67;;;1.13;;
14994;SDS011;7593;49.006;8.372;2022-07-10T14:05:58;2.85;;;1.00;;
14994;SDS011;7593;49.006;8.372;2022-07-10T14:08:28;2.28;;;1.10;;
14994;SDS011;7593;49.006;8.372;2022-07-10T14:10:58;2.53;;;1.25;;
14994;SDS011;7593;49.006;8.372;2022-07-10T14:13:25;2.30;;;0.90;;
14994;SDS011;7593;49.006;8.372;2022-07-10T14:15:53;2.55;;;1.00;;
14994;SDS011;7593;49.006;8.372;2022-07-10T14:18:20;2.15;;;1.20;;
14994;SDS011;7593;49.006;8.372;2022-07-10T14:21:05;2.85;;;1.00;;
14994;SDS011;7593;49.006;8.372;2022-07-10T14:23:34;6.40;;;1.40;;
14994;SDS011;7593;49.006;8.372;2022-07-10T14:26:06;1.65;;;1.00;;
14994;SDS011;7593;49.006;8.372;2022-07-10T14:28:33;4.65;;;1.45;;
14994;SDS011;7593;49.006;8.372;2022-07-10T14:31:00;3.58;;;1.30;;
14994;SDS011;7593;49.006;8.372;2022-07-10T14:33:28;6.57;;;1.30;;
14994;SDS011;7593;49.006;8.372;2022-07-10T14:35:56;3.70;;;1.30;;
14994;SDS011;7593;49.006;8.372;2022-07-10T14:38:25;3.28;;;1.20;;
14994;SDS011;7593;49.006;8.372;2022-07-10T14:40:53;4.45;;;1.45;;
14994;SDS011;7593;49.006;8.372;2022-07-10T14:43:21;4.00;;;1.35;;
14994;SDS011;7593;49.006;8.372;2022-07-10T14:45:49;6.47;;;1.33;;
14994;SDS011;7593;49.006;8.372;2022-07-10T14:48:16;4.28;;;1.25;;
14994;SDS011;7593;49.006;8.372;2022-07-10T14:50:43;2.50;;;1.13;;
14994;SDS011;7593;49.006;8.372;2022-07-10T14:53:10;3.92;;;1.50;;
14994;SDS011;7593;49.006;8.372;2022-07-10T14:55:38;2.22;;;1.23;;
14994;SDS011;7593;49.006;8.372;2022-07-10T14:58:08;8.15;;;1.60;;
14994;SDS011;7593;49.006;8.372;2022-07-10T15:00:35;3.42;;;1.60;;
14994;SDS011;7593;49.006;8.372;2022-07-10T15:03:02;3.92;;;1.65;;
14994;SDS011;7593;49.006;8.372;2022-07-10T15:05:29;2.53;;;1.30;;
14994;SDS011;7593;49.006;8.372;2022-07-10T15:07:56;2.42;;;1.20;;
14994;SDS011;7593;49.006;8.372;2022-07-10T15:10:23;3.40;;;1.40;;
14994;SDS011;7593;49.006;8.372;2022-07-10T15:12:51;2.17;;;1.15;;
14994;SDS011;7593;49.006;8.372;2022-07-10T15:15:18;2.92;;;1.10;;
14994;SDS011;7593;49.006;8.372;2022-07-10T15:17:45;5.28;;;1.35;;
14994;SDS011;7593;49.006;8.372;2022-07-10T15:20:14;2.28;;;1.10;;
14994;SDS011;7593;49.006;8.372;2022-07-10T15:22:43;4.90;;;1.58;;